createdAt,value
2023-05-13T00:03:49.412Z,14.40
2023-05-13T00:08:51.049Z,14.27
2023-05-13T00:13:53.093Z,14.16
2023-05-13T00:18:55.658Z,14.09
2023-05-13T00:23:57.581Z,14.03
2023-05-13T00:28:59.332Z,14.08
2023-05-13T00:34:01.828Z,13.98
2023-05-13T00:39:03.540Z,13.97
2023-05-13T00:44:05.278Z,13.93
2023-05-13T00:49:07.147Z,13.94
2023-05-13T00:54:09.009Z,13.92
2023-05-13T00:59:10.671Z,13.91
2023-05-13T01:04:37.782Z,13.96
2023-05-13T01:09:39.286Z,13.86
2023-05-13T01:14:52.148Z,13.61
2023-05-13T01:19:56.372Z,13.40
2023-05-13T01:24:58.255Z,13.24
2023-05-13T01:30:00.299Z,13.14
2023-05-13T01:35:07.691Z,13.22
2023-05-13T01:40:28.273Z,13.02
2023-05-13T01:45:37.176Z,12.86
2023-05-13T01:50:39.286Z,12.89
2023-05-13T01:55:41.660Z,13.07
2023-05-13T02:00:44.469Z,12.83
2023-05-13T02:05:48.670Z,12.76
2023-05-13T02:10:57.728Z,12.69
2023-05-13T02:15:59.549Z,12.73
2023-05-13T02:21:01.241Z,12.84
2023-05-13T02:26:02.999Z,12.96
2023-05-13T02:31:04.680Z,12.94
2023-05-13T02:36:06.482Z,12.90
2023-05-13T02:41:08.142Z,12.90
2023-05-13T02:46:10.547Z,12.85
2023-05-13T02:51:12.289Z,12.80
2023-05-13T02:56:14.015Z,12.73
2023-05-13T03:01:15.625Z,12.65
2023-05-13T03:06:17.496Z,12.83
2023-05-13T03:11:19.213Z,12.79
2023-05-13T03:16:20.814Z,12.14
2023-05-13T03:21:22.511Z,11.98
2023-05-13T03:26:24.282Z,11.89
2023-05-13T03:31:26.131Z,11.83
2023-05-13T03:36:28.565Z,11.68
2023-05-13T03:41:30.851Z,11.90
2023-05-13T03:46:34.427Z,11.68
2023-05-13T03:51:36.615Z,11.72
2023-05-13T03:56:38.592Z,11.91
2023-05-13T04:01:40.357Z,11.74
2023-05-13T04:06:41.960Z,11.71
2023-05-13T04:11:44.102Z,11.63
2023-05-13T04:16:46.293Z,11.77
2023-05-13T04:21:48.039Z,11.99
2023-05-13T04:26:49.766Z,12.10
2023-05-13T04:31:53.159Z,12.24
2023-05-13T04:36:55.003Z,12.33
2023-05-13T04:41:58.110Z,12.42
2023-05-13T04:47:00.362Z,12.57
2023-05-13T04:52:03.499Z,12.68
2023-05-13T04:57:06.758Z,12.85
2023-05-13T05:02:08.518Z,13.10
2023-05-13T05:07:10.378Z,13.46
2023-05-13T05:12:12.163Z,13.91
2023-05-13T05:17:16.991Z,14.24
2023-05-13T05:22:19.494Z,14.72
2023-05-13T05:27:21.203Z,14.51
2023-05-13T05:32:23.486Z,15.45
2023-05-13T05:37:25.325Z,15.55
2023-05-13T05:42:27.142Z,15.65
2023-05-13T05:47:29.233Z,16.01
2023-05-13T05:52:31.423Z,16.46
2023-05-13T05:57:33.509Z,16.78
2023-05-13T06:02:35.385Z,18.19
2023-05-13T06:07:38.524Z,18.58
2023-05-13T06:12:41.488Z,19.04
2023-05-13T06:17:44.550Z,18.38
2023-05-13T06:22:46.589Z,18.12
2023-05-13T06:27:48.210Z,17.85
2023-05-13T06:33:00.196Z,19.04
2023-05-13T06:38:06.249Z,18.63
2023-05-13T06:43:09.286Z,18.65
2023-05-13T06:48:14.079Z,18.25
2023-05-13T06:53:15.802Z,18.93
2023-05-13T06:58:17.391Z,20.27
2023-05-13T07:03:19.138Z,20.32
2023-05-13T07:08:21.062Z,18.76
2023-05-13T07:13:22.694Z,19.85
2023-05-13T07:18:24.583Z,20.20
2023-05-13T07:23:26.416Z,19.30
2023-05-13T07:28:28.017Z,20.34
2023-05-13T07:33:29.850Z,22.31
2023-05-13T07:38:31.518Z,22.68
2023-05-13T07:43:33.290Z,22.94
2023-05-13T07:48:34.920Z,21.44
2023-05-13T07:53:36.827Z,21.48
2023-05-13T07:58:38.547Z,22.12
2023-05-13T08:03:40.519Z,22.63
2023-05-13T08:08:42.325Z,25.10
2023-05-13T08:13:44.061Z,25.33
2023-05-13T08:18:45.835Z,26.18
2023-05-13T08:23:49.555Z,27.08
2023-05-13T08:28:54.451Z,26.48
2023-05-13T08:33:56.806Z,26.88
2023-05-13T08:38:58.748Z,27.13
2023-05-13T08:44:01.238Z,28.31
2023-05-13T08:49:04.023Z,28.48
2023-05-13T08:54:09.250Z,25.26
2023-05-13T08:59:15.323Z,25.73
2023-05-13T09:04:19.739Z,26.67
2023-05-13T09:09:22.031Z,29.03
2023-05-13T09:14:29.506Z,28.19
2023-05-13T09:19:31.438Z,28.46
2023-05-13T09:24:33.118Z,27.16
2023-05-13T09:29:34.936Z,27.30
2023-05-13T09:34:36.660Z,26.98
2023-05-13T09:39:40.840Z,27.97
2023-05-13T09:44:43.297Z,27.63
2023-05-13T09:49:53.039Z,29.41
2023-05-13T09:54:56.942Z,27.94
2023-05-13T09:59:59.805Z,26.43
2023-05-13T10:05:02.092Z,25.87
2023-05-13T10:10:07.441Z,25.48
2023-05-13T10:15:09.709Z,25.49
2023-05-13T10:20:11.896Z,22.38
2023-05-13T10:25:13.525Z,21.21
2023-05-13T10:30:15.812Z,20.32
2023-05-13T10:35:20.000Z,20.30
2023-05-13T10:41:01.320Z,19.72
2023-05-13T10:46:05.800Z,19.49
2023-05-13T10:51:07.494Z,18.79
2023-05-13T10:56:09.104Z,18.30
2023-05-13T11:01:19.367Z,17.96
2023-05-13T11:06:23.827Z,17.58
2023-05-13T11:11:30.378Z,17.64
2023-05-13T11:16:33.322Z,18.04
2023-05-13T11:21:38.249Z,17.75
2023-05-13T11:26:51.067Z,16.18
2023-05-13T11:31:52.945Z,14.92
2023-05-13T11:37:06.038Z,14.45
2023-05-13T11:42:10.368Z,14.26
2023-05-13T11:47:12.242Z,14.33
2023-05-13T11:52:15.976Z,14.65
2023-05-13T11:57:17.449Z,14.93
2023-05-13T12:02:24.462Z,15.53
2023-05-13T12:07:27.107Z,16.23
2023-05-13T12:12:30.592Z,16.91
2023-05-13T12:17:32.656Z,17.54
2023-05-13T12:22:35.412Z,18.41
2023-05-13T12:27:36.937Z,19.10
2023-05-13T12:32:46.900Z,18.67
2023-05-13T12:37:59.850Z,18.85
2023-05-13T12:43:02.413Z,18.93
2023-05-13T12:48:04.279Z,19.78
2023-05-13T12:53:06.124Z,21.05
2023-05-13T12:58:08.801Z,21.64
2023-05-13T13:03:10.514Z,22.40
2023-05-13T13:08:12.380Z,21.47
2023-05-13T13:13:13.925Z,20.61
2023-05-13T13:18:15.579Z,20.25
2023-05-13T13:23:18.298Z,20.61
2023-05-13T13:28:19.891Z,21.67
2023-05-13T13:33:21.665Z,23.56
2023-05-13T13:38:23.442Z,22.05
2023-05-13T13:43:25.300Z,20.49
2023-05-13T13:48:27.006Z,20.00
2023-05-13T13:53:28.714Z,20.15
2023-05-13T13:58:30.323Z,19.88
2023-05-13T14:03:32.096Z,19.58
2023-05-13T14:08:33.814Z,19.79
2023-05-13T14:13:35.344Z,19.66
2023-05-13T14:18:37.005Z,18.61
2023-05-13T14:23:38.573Z,18.58
2023-05-13T14:28:40.226Z,18.37
2023-05-13T14:33:41.824Z,17.73
2023-05-13T14:38:43.764Z,15.84
2023-05-13T14:43:48.878Z,15.83
2023-05-13T14:48:50.617Z,17.45
2023-05-13T14:53:52.184Z,17.59
2023-05-13T14:58:54.014Z,18.19
2023-05-13T15:03:55.684Z,18.34
2023-05-13T15:08:57.353Z,18.22
2023-05-13T15:13:59.160Z,18.17
2023-05-13T15:19:00.820Z,19.86
2023-05-13T15:24:02.433Z,20.85
2023-05-13T15:29:04.256Z,19.76
2023-05-13T15:34:05.796Z,19.20
2023-05-13T15:39:07.476Z,18.94
2023-05-13T15:44:09.102Z,18.79
2023-05-13T15:49:10.912Z,18.67
2023-05-13T15:54:12.630Z,18.52
2023-05-13T15:59:14.200Z,18.44
2023-05-13T16:04:16.043Z,18.74
2023-05-13T16:09:17.728Z,18.89
2023-05-13T16:14:19.649Z,19.30
2023-05-13T16:19:21.446Z,19.66
2023-05-13T16:24:23.091Z,19.79
2023-05-13T16:29:24.668Z,20.11
2023-05-13T16:34:29.828Z,19.88
2023-05-13T16:39:31.434Z,19.86
2023-05-13T16:44:33.249Z,19.76
2023-05-13T16:49:36.005Z,19.75
2023-05-13T16:54:37.892Z,19.51
2023-05-13T16:59:39.683Z,19.36
2023-05-13T17:04:41.250Z,19.28
2023-05-13T17:09:42.912Z,19.21
2023-05-13T17:14:44.722Z,19.07
2023-05-13T17:19:48.469Z,18.91
2023-05-13T17:24:50.196Z,18.59
2023-05-13T17:29:53.993Z,19.24
2023-05-13T17:34:55.487Z,19.79
2023-05-13T17:39:57.197Z,19.75
2023-05-13T17:44:59.035Z,19.75
2023-05-13T17:50:00.974Z,19.72
2023-05-13T17:55:02.731Z,19.31
2023-05-13T18:00:04.897Z,18.92
2023-05-13T18:05:07.612Z,18.68
2023-05-13T18:10:09.820Z,18.33
2023-05-13T18:15:11.631Z,18.21
2023-05-13T18:20:13.307Z,18.04
2023-05-13T18:25:15.198Z,17.92
2023-05-13T18:30:17.997Z,17.75
2023-05-13T18:35:19.633Z,17.63
2023-05-13T18:40:21.605Z,17.34
2023-05-13T18:45:23.568Z,17.15
2023-05-13T18:50:25.491Z,16.92
2023-05-13T18:55:27.083Z,16.73
2023-05-13T19:00:28.792Z,16.74
2023-05-13T19:05:30.364Z,16.83
2023-05-13T19:10:36.801Z,16.86
2023-05-13T19:15:41.152Z,16.86
2023-05-13T19:20:42.830Z,16.73
2023-05-13T19:25:45.775Z,16.49
2023-05-13T19:30:47.697Z,16.40
2023-05-13T19:35:49.381Z,16.34
2023-05-13T19:40:54.774Z,15.91
2023-05-13T19:45:56.487Z,15.40
2023-05-13T19:50:58.473Z,15.15
2023-05-13T19:56:00.128Z,15.04
2023-05-13T20:01:01.763Z,14.74
2023-05-13T20:06:03.530Z,14.36
2023-05-13T20:11:05.281Z,14.09
2023-05-13T20:16:06.971Z,13.90
2023-05-13T20:21:08.586Z,13.84
2023-05-13T20:26:10.228Z,13.65
2023-05-13T20:31:11.913Z,13.61
2023-05-13T20:36:13.597Z,13.64
2023-05-13T20:41:15.249Z,13.60
2023-05-13T20:46:17.182Z,13.59
2023-05-13T20:51:18.952Z,13.53
2023-05-13T20:56:20.573Z,13.12
2023-05-13T21:01:22.235Z,13.04
2023-05-13T21:06:24.754Z,13.11
2023-05-13T21:11:26.628Z,12.98
2023-05-13T21:16:28.662Z,12.82
2023-05-13T21:21:30.398Z,12.90
2023-05-13T21:26:33.360Z,12.81
2023-05-13T21:31:34.985Z,12.84
2023-05-13T21:36:36.642Z,12.64
2023-05-13T21:41:38.251Z,12.75
2023-05-13T21:46:39.994Z,12.69
2023-05-13T21:51:41.731Z,12.57
2023-05-13T21:56:43.300Z,12.47
2023-05-13T22:01:44.913Z,12.43
2023-05-13T22:06:46.498Z,12.32
2023-05-13T22:11:48.096Z,12.38
2023-05-13T22:17:00.965Z,12.48
2023-05-13T22:22:09.035Z,12.38
2023-05-13T22:27:10.585Z,12.28
2023-05-13T22:32:12.245Z,12.41
2023-05-13T22:37:13.869Z,12.49
2023-05-13T22:42:15.414Z,12.43
2023-05-13T22:47:17.011Z,12.21
2023-05-13T22:52:18.569Z,12.18
2023-05-13T22:57:20.126Z,12.34
2023-05-13T23:02:21.686Z,12.47
2023-05-13T23:07:23.253Z,12.53
2023-05-13T23:12:24.901Z,12.21
2023-05-13T23:17:26.577Z,12.24
2023-05-13T23:22:28.176Z,12.19
2023-05-13T23:27:29.710Z,12.00
2023-05-13T23:32:31.353Z,11.64
2023-05-13T23:37:32.924Z,11.50
2023-05-13T23:42:34.590Z,11.55
2023-05-13T23:47:36.336Z,11.32
2023-05-13T23:52:38.002Z,10.91
2023-05-13T23:57:39.616Z,10.90
